sensor_id;sensor_type;location;lat;lon;timestamp;pressure;altitude;pressure_sealevel;temperature;humidity
76205;BME280;64986;55.672;37.628;2023-04-09T00:01:09;100475.25;;;7.29;50.08
76205;BME280;64986;55.672;37.628;2023-04-09T00:03:36;100490.19;;;7.37;49.72
76205;BME280;64986;55.672;37.628;2023-04-09T00:06:03;100494.09;;;7.33;50.00
76205;BME280;64986;55.672;37.628;2023-04-09T00:08:29;100491.63;;;7.31;50.38
76205;BME280;64986;55.672;37.628;2023-04-09T00:10:56;100488.34;;;7.29;50.48
76205;BME280;64986;55.672;37.628;2023-04-09T00:13:22;100495.41;;;7.29;50.28
76205;BME280;64986;55.672;37.628;2023-04-09T00:15:48;100488.03;;;7.32;50.06
76205;BME280;64986;55.672;37.628;2023-04-09T00:18:14;100492.31;;;7.33;50.34
76205;BME280;64986;55.672;37.628;2023-04-09T00:20:39;100487.22;;;7.32;50.09
76205;BME280;64986;55.672;37.628;2023-04-09T00:23:05;100489.69;;;7.33;50.50
76205;BME280;64986;55.672;37.628;2023-04-09T00:25:31;100485.75;;;7.29;50.34
76205;BME280;64986;55.672;37.628;2023-04-09T00:27:56;100480.81;;;7.26;50.33
76205;BME280;64986;55.672;37.628;2023-04-09T00:30:23;100488.03;;;7.32;49.97
76205;BME280;64986;55.672;37.628;2023-04-09T00:32:48;100495.22;;;7.30;50.40
76205;BME280;64986;55.672;37.628;2023-04-09T00:35:14;100486.88;;;7.27;50.73
76205;BME280;64986;55.672;37.628;2023-04-09T00:37:42;100492.25;;;7.25;50.69
76205;BME280;64986;55.672;37.628;2023-04-09T00:40:08;100490.78;;;7.22;51.07
76205;BME280;64986;55.672;37.628;2023-04-09T00:42:34;100492.59;;;7.22;50.84
76205;BME280;64986;55.672;37.628;2023-04-09T00:45:02;100484.06;;;7.20;50.86
76205;BME280;64986;55.672;37.628;2023-04-09T00:47:28;100488.13;;;7.14;50.95
76205;BME280;64986;55.672;37.628;2023-04-09T00:49:54;100490.25;;;7.11;50.83
76205;BME280;64986;55.672;37.628;2023-04-09T00:52:20;100484.19;;;7.10;51.01
76205;BME280;64986;55.672;37.628;2023-04-09T00:54:47;100488.59;;;7.10;50.64
76205;BME280;64986;55.672;37.628;2023-04-09T00:57:14;100488.59;;;7.10;51.28
76205;BME280;64986;55.672;37.628;2023-04-09T00:59:40;100486.31;;;7.07;50.77
76205;BME280;64986;55.672;37.628;2023-04-09T01:02:06;100485.66;;;7.05;50.94
76205;BME280;64986;55.672;37.628;2023-04-09T01:04:32;100483.84;;;7.05;51.16
76205;BME280;64986;55.672;37.628;2023-04-09T01:09:49;100491.88;;;7.04;51.80
76205;BME280;64986;55.672;37.628;2023-04-09T01:15:07;100488.06;;;6.98;52.25
76205;BME280;64986;55.672;37.628;2023-04-09T01:17:40;100493.16;;;7.00;51.96
76205;BME280;64986;55.672;37.628;2023-04-09T01:20:17;100488.22;;;6.97;51.86
76205;BME280;64986;55.672;37.628;2023-04-09T01:28:28;100494.09;;;6.90;51.95
76205;BME280;64986;55.672;37.628;2023-04-09T01:31:10;100490.50;;;6.91;52.84
76205;BME280;64986;55.672;37.628;2023-04-09T01:33:38;100486.53;;;6.87;51.71
76205;BME280;64986;55.672;37.628;2023-04-09T01:36:06;100493.72;;;6.85;51.87
76205;BME280;64986;55.672;37.628;2023-04-09T01:38:36;100486.84;;;6.84;52.69
76205;BME280;64986;55.672;37.628;2023-04-09T01:41:02;100491.31;;;6.92;51.63
76205;BME280;64986;55.672;37.628;2023-04-09T01:43:29;100491.84;;;6.95;51.55
76205;BME280;64986;55.672;37.628;2023-04-09T01:45:57;100495.41;;;6.94;52.00
76205;BME280;64986;55.672;37.628;2023-04-09T01:48:24;100502.97;;;6.98;52.14
76205;BME280;64986;55.672;37.628;2023-04-09T01:50:50;100498.38;;;7.00;52.32
76205;BME280;64986;55.672;37.628;2023-04-09T01:53:17;100494.78;;;7.01;51.77
76205;BME280;64986;55.672;37.628;2023-04-09T01:55:42;100497.25;;;7.02;51.95
76205;BME280;64986;55.672;37.628;2023-04-09T01:58:08;100503.00;;;7.06;51.98
76205;BME280;64986;55.672;37.628;2023-04-09T02:00:46;100498.56;;;7.06;52.89
76205;BME280;64986;55.672;37.628;2023-04-09T02:03:22;100491.72;;;7.05;51.63
76205;BME280;64986;55.672;37.628;2023-04-09T02:06:03;100497.44;;;7.09;52.51
76205;BME280;64986;55.672;37.628;2023-04-09T02:08:32;100496.41;;;7.02;51.98
76205;BME280;64986;55.672;37.628;2023-04-09T02:11:01;100491.84;;;6.95;52.16
76205;BME280;64986;55.672;37.628;2023-04-09T02:13:30;100494.94;;;6.99;52.31
76205;BME280;64986;55.672;37.628;2023-04-09T02:15:58;100495.94;;;6.98;52.35
76205;BME280;64986;55.672;37.628;2023-04-09T02:18:26;100497.06;;;6.95;52.02
76205;BME280;64986;55.672;37.628;2023-04-09T02:20:53;100489.31;;;6.86;52.25
76205;BME280;64986;55.672;37.628;2023-04-09T02:23:19;100496.06;;;6.88;52.17
76205;BME280;64986;55.672;37.628;2023-04-09T02:25:45;100501.41;;;6.87;52.69
76205;BME280;64986;55.672;37.628;2023-04-09T02:28:10;100492.09;;;6.84;52.49
76205;BME280;64986;55.672;37.628;2023-04-09T02:30:36;100495.84;;;6.82;52.29
76205;BME280;64986;55.672;37.628;2023-04-09T02:33:01;100493.53;;;6.79;52.94
76205;BME280;64986;55.672;37.628;2023-04-09T02:35:27;100494.16;;;6.73;52.48
76205;BME280;64986;55.672;37.628;2023-04-09T02:37:53;100492.69;;;6.78;52.44
76205;BME280;64986;55.672;37.628;2023-04-09T02:40:18;100491.06;;;6.77;52.99
76205;BME280;64986;55.672;37.628;2023-04-09T02:42:44;100493.03;;;6.75;52.75
76205;BME280;64986;55.672;37.628;2023-04-09T02:45:09;100493.69;;;6.77;52.93
76205;BME280;64986;55.672;37.628;2023-04-09T02:47:35;100487.63;;;6.77;53.12
76205;BME280;64986;55.672;37.628;2023-04-09T02:50:00;100485.34;;;6.74;52.95
76205;BME280;64986;55.672;37.628;2023-04-09T02:52:26;100488.94;;;6.73;53.33
76205;BME280;64986;55.672;37.628;2023-04-09T02:54:52;100487.94;;;6.74;53.17
76205;BME280;64986;55.672;37.628;2023-04-09T02:57:17;100489.44;;;6.76;53.50
76205;BME280;64986;55.672;37.628;2023-04-09T02:59:44;100492.03;;;6.76;53.25
76205;BME280;64986;55.672;37.628;2023-04-09T03:02:10;100494.81;;;6.75;53.60
76205;BME280;64986;55.672;37.628;2023-04-09T03:04:37;100493.31;;;6.72;53.51
76205;BME280;64986;55.672;37.628;2023-04-09T03:07:03;100498.56;;;6.72;53.60
76205;BME280;64986;55.672;37.628;2023-04-09T03:09:28;100498.72;;;6.71;53.47
76205;BME280;64986;55.672;37.628;2023-04-09T03:11:55;100498.72;;;6.71;53.32
76205;BME280;64986;55.672;37.628;2023-04-09T03:14:22;100501.34;;;6.71;53.38
76205;BME280;64986;55.672;37.628;2023-04-09T03:16:47;100497.06;;;6.70;52.90
76205;BME280;64986;55.672;37.628;2023-04-09T03:19:13;100504.25;;;6.67;53.11
76205;BME280;64986;55.672;37.628;2023-04-09T03:21:39;100498.06;;;6.68;53.22
76205;BME280;64986;55.672;37.628;2023-04-09T03:24:05;100493.47;;;6.71;53.31
76205;BME280;64986;55.672;37.628;2023-04-09T03:26:31;100503.66;;;6.74;53.88
76205;BME280;64986;55.672;37.628;2023-04-09T03:29:01;100499.91;;;6.76;53.61
76205;BME280;64986;55.672;37.628;2023-04-09T03:31:27;100492.88;;;6.77;53.34
76205;BME280;64986;55.672;37.628;2023-04-09T03:33:52;100493.69;;;6.77;53.01
76205;BME280;64986;55.672;37.628;2023-04-09T03:36:18;100500.25;;;6.81;53.52
76205;BME280;64986;55.672;37.628;2023-04-09T03:38:43;100496.50;;;6.84;53.70
76205;BME280;64986;55.672;37.628;2023-04-09T03:41:09;100501.41;;;6.87;53.14
76205;BME280;64986;55.672;37.628;2023-04-09T03:43:34;100494.72;;;6.84;53.38
76205;BME280;64986;55.672;37.628;2023-04-09T03:46:00;100495.38;;;6.86;53.14
76205;BME280;64986;55.672;37.628;2023-04-09T03:48:25;100502.56;;;6.84;53.86
76205;BME280;64986;55.672;37.628;2023-04-09T03:50:51;100499.28;;;6.82;53.83
76205;BME280;64986;55.672;37.628;2023-04-09T03:53:18;100497.16;;;6.86;53.25
76205;BME280;64986;55.672;37.628;2023-04-09T03:55:43;100499.94;;;6.84;53.73
76205;BME280;64986;55.672;37.628;2023-04-09T03:58:09;100497.00;;;6.87;53.63
76205;BME280;64986;55.672;37.628;2023-04-09T04:00:35;100500.97;;;6.91;53.84
76205;BME280;64986;55.672;37.628;2023-04-09T04:03:00;100500.19;;;6.99;53.00
76205;BME280;64986;55.672;37.628;2023-04-09T04:05:26;100487.59;;;7.03;53.22
76205;BME280;64986;55.672;37.628;2023-04-09T04:07:52;100496.31;;;7.11;52.72
76205;BME280;64986;55.672;37.628;2023-04-09T04:10:18;100499.25;;;7.16;52.47
76205;BME280;64986;55.672;37.628;2023-04-09T04:12:43;100504.69;;;7.23;52.92
76205;BME280;64986;55.672;37.628;2023-04-09T04:15:09;100503.25;;;7.29;52.82
76205;BME280;64986;55.672;37.628;2023-04-09T04:17:35;100491.34;;;7.34;52.36
76205;BME280;64986;55.672;37.628;2023-04-09T04:20:00;100499.50;;;7.39;52.30
76205;BME280;64986;55.672;37.628;2023-04-09T04:22:26;100493.34;;;7.48;52.29
76205;BME280;64986;55.672;37.628;2023-04-09T04:24:51;100497.91;;;7.55;52.39
76205;BME280;64986;55.672;37.628;2023-04-09T04:27:17;100494.66;;;7.61;52.09
76205;BME280;64986;55.672;37.628;2023-04-09T04:29:42;100494.69;;;7.69;52.23
76205;BME280;64986;55.672;37.628;2023-04-09T04:32:07;100493.69;;;7.78;51.73
76205;BME280;64986;55.672;37.628;2023-04-09T04:34:33;100491.59;;;7.90;51.13
76205;BME280;64986;55.672;37.628;2023-04-09T04:36:58;100488.00;;;7.99;51.52
76205;BME280;64986;55.672;37.628;2023-04-09T04:39:24;100482.28;;;8.03;50.93
76205;BME280;64986;55.672;37.628;2023-04-09T04:41:49;100490.78;;;8.05;50.68
76205;BME280;64986;55.672;37.628;2023-04-09T04:44:15;100488.81;;;8.07;50.70
76205;BME280;64986;55.672;37.628;2023-04-09T04:46:41;100486.34;;;8.06;51.29
76205;BME280;64986;55.672;37.628;2023-04-09T04:49:06;100485.88;;;8.11;51.06
76205;BME280;64986;55.672;37.628;2023-04-09T04:51:32;100482.75;;;8.15;51.21
76205;BME280;64986;55.672;37.628;2023-04-09T04:53:57;100485.38;;;8.23;50.43
76205;BME280;64986;55.672;37.628;2023-04-09T04:56:23;100486.72;;;8.36;50.79
76205;BME280;64986;55.672;37.628;2023-04-09T04:58:48;100489.66;;;8.49;50.63
76205;BME280;64986;55.672;37.628;2023-04-09T05:01:14;100494.38;;;8.53;50.01
76205;BME280;64986;55.672;37.628;2023-04-09T05:03:39;100483.41;;;8.58;50.33
76205;BME280;64986;55.672;37.628;2023-04-09T05:06:05;100491.22;;;8.74;49.91
76205;BME280;64986;55.672;37.628;2023-04-09T05:08:30;100488.41;;;8.84;49.75
76205;BME280;64986;55.672;37.628;2023-04-09T05:10:56;100492.69;;;8.85;49.80
76205;BME280;64986;55.672;37.628;2023-04-09T05:13:22;100492.53;;;8.86;49.91
76205;BME280;64986;55.672;37.628;2023-04-09T05:15:48;100491.03;;;8.84;49.75
76205;BME280;64986;55.672;37.628;2023-04-09T05:18:13;100491.31;;;8.97;49.60
76205;BME280;64986;55.672;37.628;2023-04-09T05:20:39;100492.09;;;9.14;48.96
76205;BME280;64986;55.672;37.628;2023-04-09T05:23:04;100490.34;;;9.37;48.59
76205;BME280;64986;55.672;37.628;2023-04-09T05:25:30;100502.19;;;9.64;47.81
76205;BME280;64986;55.672;37.628;2023-04-09T05:27:56;100492.69;;;9.86;47.63
76205;BME280;64986;55.672;37.628;2023-04-09T05:30:21;100492.50;;;10.11;47.09
76205;BME280;64986;55.672;37.628;2023-04-09T05:32:47;100498.16;;;10.45;46.20
76205;BME280;64986;55.672;37.628;2023-04-09T05:35:12;100491.53;;;10.64;45.67
76205;BME280;64986;55.672;37.628;2023-04-09T05:37:38;100503.63;;;10.59;46.07
76205;BME280;64986;55.672;37.628;2023-04-09T05:40:04;100500.34;;;10.56;45.59
76205;BME280;64986;55.672;37.628;2023-04-09T05:42:29;100494.97;;;10.50;45.77
76205;BME280;64986;55.672;37.628;2023-04-09T05:44:55;100509.81;;;10.66;45.63
76205;BME280;64986;55.672;37.628;2023-04-09T05:47:20;100488.19;;;10.85;44.95
76205;BME280;64986;55.672;37.628;2023-04-09T05:49:46;100495.66;;;10.81;44.83
76205;BME280;64986;55.672;37.628;2023-04-09T05:52:11;100500.72;;;10.68;45.32
76205;BME280;64986;55.672;37.628;2023-04-09T05:54:37;100500.47;;;10.78;45.13
76205;BME280;64986;55.672;37.628;2023-04-09T05:57:02;100498.19;;;10.90;44.82
76205;BME280;64986;55.672;37.628;2023-04-09T05:59:28;100503.63;;;11.18;44.59
76205;BME280;64986;55.672;37.628;2023-04-09T06:01:54;100498.50;;;11.31;44.13
76205;BME280;64986;55.672;37.628;2023-04-09T06:04:19;100503.41;;;11.49;43.71
76205;BME280;64986;55.672;37.628;2023-04-09T06:06:45;100511.00;;;11.58;43.62
76205;BME280;64986;55.672;37.628;2023-04-09T06:09:11;100499.25;;;11.61;43.50
76205;BME280;64986;55.672;37.628;2023-04-09T06:11:36;100506.56;;;11.95;42.78
76205;BME280;64986;55.672;37.628;2023-04-09T06:14:02;100505.50;;;11.89;42.73
76205;BME280;64986;55.672;37.628;2023-04-09T06:16:28;100513.16;;;12.06;42.98
76205;BME280;64986;55.672;37.628;2023-04-09T06:18:53;100515.31;;;12.23;41.89
76205;BME280;64986;55.672;37.628;2023-04-09T06:21:21;100507.28;;;12.32;42.28
76205;BME280;64986;55.672;37.628;2023-04-09T06:23:46;100511.66;;;12.46;41.99
76205;BME280;64986;55.672;37.628;2023-04-09T06:26:12;100518.34;;;12.42;41.51
76205;BME280;64986;55.672;37.628;2023-04-09T06:28:37;100512.28;;;12.48;41.99
76205;BME280;64986;55.672;37.628;2023-04-09T06:31:03;100512.84;;;12.43;42.02
76205;BME280;64986;55.672;37.628;2023-04-09T06:33:28;100509.81;;;12.46;41.38
76205;BME280;64986;55.672;37.628;2023-04-09T06:35:54;100518.09;;;12.65;41.19
76205;BME280;64986;55.672;37.628;2023-04-09T06:38:19;100508.75;;;12.69;41.05
76205;BME280;64986;55.672;37.628;2023-04-09T06:40:45;100514.03;;;12.62;41.40
76205;BME280;64986;55.672;37.628;2023-04-09T06:43:10;100512.78;;;12.58;41.61
76205;BME280;64986;55.672;37.628;2023-04-09T06:45:36;100511.09;;;12.50;41.12
76205;BME280;64986;55.672;37.628;2023-04-09T06:48:02;100515.50;;;12.43;41.39
76205;BME280;64986;55.672;37.628;2023-04-09T06:50:28;100514.16;;;12.26;41.48
76205;BME280;64986;55.672;37.628;2023-04-09T06:52:54;100520.19;;;12.20;41.53
76205;BME280;64986;55.672;37.628;2023-04-09T06:55:20;100525.47;;;12.20;41.22
76205;BME280;64986;55.672;37.628;2023-04-09T06:57:46;100522.41;;;12.44;40.96
76205;BME280;64986;55.672;37.628;2023-04-09T07:00:12;100525.34;;;12.56;40.62
76205;BME280;64986;55.672;37.628;2023-04-09T07:02:37;100525.31;;;12.84;40.21
76205;BME280;64986;55.672;37.628;2023-04-09T07:05:03;100522.44;;;13.14;39.72
76205;BME280;64986;55.672;37.628;2023-04-09T07:07:29;100525.91;;;13.49;39.57
76205;BME280;64986;55.672;37.628;2023-04-09T07:09:55;100526.41;;;13.79;38.96
76205;BME280;64986;55.672;37.628;2023-04-09T07:12:31;100531.34;;;14.08;37.77
76205;BME280;64986;55.672;37.628;2023-04-09T07:15:06;100534.00;;;14.22;37.95
76205;BME280;64986;55.672;37.628;2023-04-09T07:17:31;100535.44;;;14.44;37.55
76205;BME280;64986;55.672;37.628;2023-04-09T07:19:57;100535.06;;;14.54;37.35
76205;BME280;64986;55.672;37.628;2023-04-09T07:22:25;100523.66;;;14.60;37.45
76205;BME280;64986;55.672;37.628;2023-04-09T07:24:51;100535.88;;;14.61;36.97
76205;BME280;64986;55.672;37.628;2023-04-09T07:27:25;100534.22;;;14.40;37.78
76205;BME280;64986;55.672;37.628;2023-04-09T07:29:55;100537.28;;;14.57;37.04
76205;BME280;64986;55.672;37.628;2023-04-09T07:32:22;100534.41;;;14.58;36.87
76205;BME280;64986;55.672;37.628;2023-04-09T07:34:50;100531.97;;;14.70;36.31
76205;BME280;64986;55.672;37.628;2023-04-09T07:37:15;100529.69;;;15.00;35.98
76205;BME280;64986;55.672;37.628;2023-04-09T07:39:41;100532.59;;;15.43;35.15
76205;BME280;64986;55.672;37.628;2023-04-09T07:42:06;100526.16;;;15.71;34.83
76205;BME280;64986;55.672;37.628;2023-04-09T07:44:33;100526.84;;;15.53;34.42
76205;BME280;64986;55.672;37.628;2023-04-09T07:47:00;100527.69;;;15.40;34.31
76205;BME280;64986;55.672;37.628;2023-04-09T07:49:25;100531.44;;;15.77;33.66
76205;BME280;64986;55.672;37.628;2023-04-09T07:51:51;100524.31;;;15.71;33.27
76205;BME280;64986;55.672;37.628;2023-04-09T07:54:16;100529.75;;;15.45;33.49
76205;BME280;64986;55.672;37.628;2023-04-09T07:56:42;100531.03;;;15.22;33.77
76205;BME280;64986;55.672;37.628;2023-04-09T07:59:07;100537.41;;;15.02;34.05
76205;BME280;64986;55.672;37.628;2023-04-09T08:01:33;100529.50;;;14.88;34.20
76205;BME280;64986;55.672;37.628;2023-04-09T08:03:58;100524.81;;;14.90;33.85
76205;BME280;64986;55.672;37.628;2023-04-09T08:06:24;100532.34;;;14.93;33.83
76205;BME280;64986;55.672;37.628;2023-04-09T08:08:51;100525.66;;;14.64;34.09
76205;BME280;64986;55.672;37.628;2023-04-09T08:11:17;100523.00;;;14.71;34.25
76205;BME280;64986;55.672;37.628;2023-04-09T08:13:52;100517.84;;;14.96;33.72
76205;BME280;64986;55.672;37.628;2023-04-09T08:16:18;100522.06;;;15.17;33.78
76205;BME280;64986;55.672;37.628;2023-04-09T08:18:43;100518.06;;;15.52;33.06
76205;BME280;64986;55.672;37.628;2023-04-09T08:21:10;100515.28;;;15.79;32.59
76205;BME280;64986;55.672;37.628;2023-04-09T08:23:35;100517.66;;;15.49;32.88
76205;BME280;64986;55.672;37.628;2023-04-09T08:26:02;100516.97;;;15.22;33.44
76205;BME280;64986;55.672;37.628;2023-04-09T08:28:28;100513.06;;;15.24;33.47
76205;BME280;64986;55.672;37.628;2023-04-09T08:30:53;100512.72;;;15.59;33.18
76205;BME280;64986;55.672;37.628;2023-04-09T08:33:19;100515.09;;;15.80;32.47
76205;BME280;64986;55.672;37.628;2023-04-09T08:35:45;100517.41;;;15.64;32.89
76205;BME280;64986;55.672;37.628;2023-04-09T08:38:10;100506.88;;;15.89;32.79
76205;BME280;64986;55.672;37.628;2023-04-09T08:40:36;100509.03;;;15.98;32.56
76205;BME280;64986;55.672;37.628;2023-04-09T08:43:04;100507.19;;;15.99;32.47
76205;BME280;64986;55.672;37.628;2023-04-09T08:45:33;100507.69;;;16.14;32.27
76205;BME280;64986;55.672;37.628;2023-04-09T08:48:01;100507.97;;;16.06;32.15
76205;BME280;64986;55.672;37.628;2023-04-09T08:50:31;100509.78;;;16.37;31.83
76205;BME280;64986;55.672;37.628;2023-04-09T08:53:01;100505.25;;;16.37;30.89
76205;BME280;64986;55.672;37.628;2023-04-09T08:55:27;100505.75;;;16.28;31.39
76205;BME280;64986;55.672;37.628;2023-04-09T08:57:53;100504.56;;;16.49;31.34
76205;BME280;64986;55.672;37.628;2023-04-09T09:00:18;100502.72;;;16.92;30.80
76205;BME280;64986;55.672;37.628;2023-04-09T09:03:08;100495.69;;;17.35;30.45
76205;BME280;64986;55.672;37.628;2023-04-09T09:05:41;100502.50;;;17.31;30.00
76205;BME280;64986;55.672;37.628;2023-04-09T09:08:12;100491.09;;;17.42;30.21
76205;BME280;64986;55.672;37.628;2023-04-09T09:10:39;100496.41;;;17.42;30.37
76205;BME280;64986;55.672;37.628;2023-04-09T09:13:22;100500.59;;;17.50;29.89
76205;BME280;64986;55.672;37.628;2023-04-09T09:15:53;100493.41;;;17.20;30.44
76205;BME280;64986;55.672;37.628;2023-04-09T09:18:37;100497.47;;;17.71;29.53
76205;BME280;64986;55.672;37.628;2023-04-09T09:21:10;100492.47;;;17.44;29.39
76205;BME280;64986;55.672;37.628;2023-04-09T09:23:36;100494.41;;;17.67;29.81
76205;BME280;64986;55.672;37.628;2023-04-09T09:26:13;100476.72;;;17.61;29.42
76205;BME280;64986;55.672;37.628;2023-04-09T09:28:40;100480.72;;;17.82;29.59
76205;BME280;64986;55.672;37.628;2023-04-09T09:31:10;100483.31;;;18.12;28.79
76205;BME280;64986;55.672;37.628;2023-04-09T09:33:36;100484.88;;;18.32;28.81
76205;BME280;64986;55.672;37.628;2023-04-09T09:36:02;100481.47;;;18.36;28.68
76205;BME280;64986;55.672;37.628;2023-04-09T09:38:30;100478.63;;;19.53;27.41
76205;BME280;64986;55.672;37.628;2023-04-09T09:40:56;100476.94;;;20.43;26.34
76205;BME280;64986;55.672;37.628;2023-04-09T09:43:23;100473.31;;;20.49;26.00
76205;BME280;64986;55.672;37.628;2023-04-09T09:45:48;100472.06;;;20.40;25.92
76205;BME280;64986;55.672;37.628;2023-04-09T09:48:14;100474.50;;;20.24;26.18
76205;BME280;64986;55.672;37.628;2023-04-09T09:50:40;100467.31;;;19.34;27.20
76205;BME280;64986;55.672;37.628;2023-04-09T09:53:08;100475.47;;;19.56;26.80
76205;BME280;64986;55.672;37.628;2023-04-09T09:55:38;100477.81;;;20.32;25.21
76205;BME280;64986;55.672;37.628;2023-04-09T09:58:15;100473.41;;;20.76;25.79
76205;BME280;64986;55.672;37.628;2023-04-09T10:00:41;100469.69;;;19.59;25.95
76205;BME280;64986;55.672;37.628;2023-04-09T10:03:14;100466.88;;;20.89;25.17
76205;BME280;64986;55.672;37.628;2023-04-09T10:05:44;100461.25;;;21.61;24.26
76205;BME280;64986;55.672;37.628;2023-04-09T10:08:11;100465.47;;;21.52;24.39
76205;BME280;64986;55.672;37.628;2023-04-09T10:10:38;100462.88;;;21.13;24.64
76205;BME280;64986;55.672;37.628;2023-04-09T10:13:18;100462.69;;;20.98;24.65
76205;BME280;64986;55.672;37.628;2023-04-09T10:15:46;100459.66;;;20.89;24.93
76205;BME280;64986;55.672;37.628;2023-04-09T10:18:14;100461.56;;;20.00;25.44
76205;BME280;64986;55.672;37.628;2023-04-09T10:20:48;100461.19;;;19.62;26.44
76205;BME280;64986;55.672;37.628;2023-04-09T10:23:23;100462.75;;;21.47;23.99
76205;BME280;64986;55.672;37.628;2023-04-09T10:25:52;100461.72;;;21.80;23.42
76205;BME280;64986;55.672;37.628;2023-04-09T10:28:18;100457.16;;;21.80;23.38
76205;BME280;64986;55.672;37.628;2023-04-09T10:30:43;100458.22;;;21.79;23.47
76205;BME280;64986;55.672;37.628;2023-04-09T10:33:14;100456.22;;;21.16;23.88
76205;BME280;64986;55.672;37.628;2023-04-09T10:35:41;100450.41;;;21.46;23.74
76205;BME280;64986;55.672;37.628;2023-04-09T10:38:08;100441.19;;;22.28;23.22
76205;BME280;64986;55.672;37.628;2023-04-09T10:40:55;100455.94;;;22.73;22.33
76205;BME280;64986;55.672;37.628;2023-04-09T10:43:20;100461.81;;;22.22;22.92
76205;BME280;64986;55.672;37.628;2023-04-09T10:45:47;100461.47;;;22.13;23.08
76205;BME280;64986;55.672;37.628;2023-04-09T10:48:18;100452.13;;;21.84;23.18
76205;BME280;64986;55.672;37.628;2023-04-09T10:50:44;100454.50;;;21.04;23.99
76205;BME280;64986;55.672;37.628;2023-04-09T10:53:24;100448.44;;;20.48;24.36
76205;BME280;64986;55.672;37.628;2023-04-09T10:55:51;100452.75;;;19.42;24.84
76205;BME280;64986;55.672;37.628;2023-04-09T10:58:17;100456.91;;;18.81;26.25
76205;BME280;64986;55.672;37.628;2023-04-09T11:00:48;100448.34;;;19.19;25.54
76205;BME280;64986;55.672;37.628;2023-04-09T11:03:28;100452.72;;;19.99;24.57
76205;BME280;64986;55.672;37.628;2023-04-09T11:06:02;100446.09;;;20.18;24.13
76205;BME280;64986;55.672;37.628;2023-04-09T11:08:31;100449.00;;;20.34;24.17
76205;BME280;64986;55.672;37.628;2023-04-09T11:10:58;100448.84;;;21.01;23.68
76205;BME280;64986;55.672;37.628;2023-04-09T11:13:25;100444.69;;;23.53;21.34
76205;BME280;64986;55.672;37.628;2023-04-09T11:15:53;100435.34;;;24.92;20.07
76205;BME280;64986;55.672;37.628;2023-04-09T11:18:27;100437.88;;;26.83;18.53
76205;BME280;64986;55.672;37.628;2023-04-09T11:21:02;100435.69;;;27.79;16.26
76205;BME280;64986;55.672;37.628;2023-04-09T11:23:30;100440.59;;;25.28;18.84
76205;BME280;64986;55.672;37.628;2023-04-09T11:25:56;100432.59;;;24.32;19.61
76205;BME280;64986;55.672;37.628;2023-04-09T11:28:22;100439.50;;;23.21;20.57
76205;BME280;64986;55.672;37.628;2023-04-09T11:30:52;100432.91;;;22.29;21.30
76205;BME280;64986;55.672;37.628;2023-04-09T11:33:17;100428.47;;;20.56;23.29
76205;BME280;64986;55.672;37.628;2023-04-09T11:35:43;100436.25;;;19.57;24.05
76205;BME280;64986;55.672;37.628;2023-04-09T11:38:10;100441.25;;;18.73;25.08
76205;BME280;64986;55.672;37.628;2023-04-09T11:40:39;100432.69;;;18.71;24.92
76205;BME280;64986;55.672;37.628;2023-04-09T11:43:09;100432.47;;;18.49;25.36
76205;BME280;64986;55.672;37.628;2023-04-09T11:45:35;100436.00;;;17.42;26.65
76205;BME280;64986;55.672;37.628;2023-04-09T11:48:01;100429.94;;;17.35;27.17
76205;BME280;64986;55.672;37.628;2023-04-09T11:50:27;100426.56;;;17.58;27.08
76205;BME280;64986;55.672;37.628;2023-04-09T11:52:52;100425.38;;;17.84;26.64
76205;BME280;64986;55.672;37.628;2023-04-09T11:55:28;100434.38;;;17.83;27.05
76205;BME280;64986;55.672;37.628;2023-04-09T11:57:57;100421.94;;;17.65;27.11
76205;BME280;64986;55.672;37.628;2023-04-09T12:00:25;100427.13;;;17.30;27.45
76205;BME280;64986;55.672;37.628;2023-04-09T12:03:01;100420.91;;;17.36;27.72
76205;BME280;64986;55.672;37.628;2023-04-09T12:05:29;100424.69;;;16.99;28.04
76205;BME280;64986;55.672;37.628;2023-04-09T12:08:03;100416.19;;;17.08;27.98
76205;BME280;64986;55.672;37.628;2023-04-09T12:10:35;100424.75;;;17.10;27.87
76205;BME280;64986;55.672;37.628;2023-04-09T12:13:06;100419.53;;;17.04;28.13
76205;BME280;64986;55.672;37.628;2023-04-09T12:15:34;100412.81;;;17.01;27.88
76205;BME280;64986;55.672;37.628;2023-04-09T12:18:00;100411.94;;;16.89;28.20
76205;BME280;64986;55.672;37.628;2023-04-09T12:20:37;100413.56;;;16.72;28.70
76205;BME280;64986;55.672;37.628;2023-04-09T12:23:07;100416.47;;;16.45;28.75
76205;BME280;64986;55.672;37.628;2023-04-09T12:25:36;100407.69;;;16.45;28.58
76205;BME280;64986;55.672;37.628;2023-04-09T12:28:05;100411.66;;;16.35;28.90
76205;BME280;64986;55.672;37.628;2023-04-09T12:30:32;100402.47;;;16.56;28.65
76205;BME280;64986;55.672;37.628;2023-04-09T12:32:58;100407.94;;;16.80;28.10
76205;BME280;64986;55.672;37.628;2023-04-09T12:35:23;100408.50;;;17.30;27.75
76205;BME280;64986;55.672;37.628;2023-04-09T12:37:49;100416.53;;;17.72;26.96
76205;BME280;64986;55.672;37.628;2023-04-09T12:40:16;100415.97;;;17.82;26.65
76205;BME280;64986;55.672;37.628;2023-04-09T12:42:43;100414.31;;;17.69;27.21
76205;BME280;64986;55.672;37.628;2023-04-09T12:45:10;100413.25;;;18.23;26.52
76205;BME280;64986;55.672;37.628;2023-04-09T12:47:36;100403.78;;;20.15;24.30
76205;BME280;64986;55.672;37.628;2023-04-09T12:50:03;100410.31;;;22.67;21.72
76205;BME280;64986;55.672;37.628;2023-04-09T12:52:29;100395.84;;;25.27;18.86
76205;BME280;64986;55.672;37.628;2023-04-09T12:54:55;100394.19;;;26.52;17.70
76205;BME280;64986;55.672;37.628;2023-04-09T12:57:20;100401.13;;;25.42;17.96